createdAt,value
2023-03-22T00:02:23.015Z,90.60
2023-03-22T00:04:54.340Z,90.50
2023-03-22T00:07:28.060Z,90.50
2023-03-22T00:10:01.189Z,90.50
2023-03-22T00:12:30.419Z,90.60
2023-03-22T00:15:00.024Z,90.60
2023-03-22T00:17:41.928Z,90.60
2023-03-22T00:20:19.638Z,90.70
2023-03-22T00:22:52.106Z,90.90
2023-03-22T00:25:20.270Z,91.10
2023-03-22T00:28:01.347Z,91.10
2023-03-22T00:30:32.310Z,91.10
2023-03-22T00:33:06.771Z,91.00
2023-03-22T00:35:37.099Z,90.80
2023-03-22T00:38:14.500Z,90.70
2023-03-22T00:40:47.837Z,90.70
2023-03-22T00:43:24.664Z,90.80
2023-03-22T00:45:52.572Z,90.90
2023-03-22T00:48:26.420Z,90.90
2023-03-22T00:50:54.282Z,91.00
2023-03-22T00:53:29.614Z,91.30
2023-03-22T00:56:00.920Z,91.30
2023-03-22T00:58:30.194Z,91.50
2023-03-22T01:01:04.520Z,91.60
2023-03-22T01:03:41.561Z,91.60
2023-03-22T01:06:12.693Z,91.80
2023-03-22T01:08:57.245Z,91.80
2023-03-22T01:11:26.103Z,91.60
2023-03-22T01:13:56.001Z,91.50
2023-03-22T01:16:23.944Z,91.30
2023-03-22T01:18:53.963Z,91.20
2023-03-22T01:21:21.853Z,91.30
2023-03-22T01:23:57.968Z,91.50
2023-03-22T01:26:31.714Z,91.40
2023-03-22T01:29:16.529Z,91.30
2023-03-22T01:31:44.468Z,91.30
2023-03-22T01:34:12.380Z,91.20
2023-03-22T01:36:43.092Z,91.10
2023-03-22T01:39:12.835Z,91.00
2023-03-22T01:41:40.742Z,91.00
2023-03-22T01:44:10.590Z,90.90
2023-03-22T01:46:40.039Z,90.80
2023-03-22T01:49:15.970Z,90.90
2023-03-22T01:51:51.971Z,90.90
2023-03-22T01:54:29.285Z,90.90
2023-03-22T01:56:57.719Z,90.90
2023-03-22T01:59:29.004Z,90.90
2023-03-22T02:02:02.813Z,90.90
2023-03-22T02:04:34.983Z,91.00
2023-03-22T02:07:15.597Z,91.10
2023-03-22T02:09:51.911Z,91.00
2023-03-22T02:12:31.907Z,91.00
2023-03-22T02:15:09.609Z,91.20
2023-03-22T02:17:54.643Z,91.30
2023-03-22T02:21:14.760Z,91.10
2023-03-22T02:24:29.414Z,91.60
2023-03-22T02:27:29.590Z,91.80
2023-03-22T02:30:16.460Z,91.80
2023-03-22T02:33:17.353Z,90.60
2023-03-22T02:35:56.701Z,91.10
2023-03-22T02:39:08.038Z,91.50
2023-03-22T02:41:54.604Z,91.80
2023-03-22T02:44:43.404Z,91.90
2023-03-22T02:47:23.334Z,91.90
2023-03-22T02:50:08.274Z,91.50
2023-03-22T02:52:40.517Z,91.20
2023-03-22T02:55:25.730Z,90.60
2023-03-22T02:57:58.703Z,91.10
2023-03-22T03:00:34.425Z,91.10
2023-03-22T03:03:11.295Z,92.10
2023-03-22T03:05:44.169Z,92.70
2023-03-22T03:08:24.221Z,92.80
2023-03-22T03:10:55.577Z,92.70
2023-03-22T03:13:30.324Z,92.60
2023-03-22T03:16:07.486Z,92.20
2023-03-22T03:18:48.424Z,92.30
2023-03-22T03:21:37.559Z,92.50
2023-03-22T03:24:28.102Z,92.30
2023-03-22T03:27:01.765Z,91.70
2023-03-22T03:30:02.681Z,92.30
2023-03-22T03:32:37.035Z,92.30
2023-03-22T03:35:24.591Z,92.30
2023-03-22T03:37:57.490Z,92.30
2023-03-22T03:40:33.500Z,92.20
2023-03-22T03:43:09.829Z,92.30
2023-03-22T03:45:42.548Z,91.60
2023-03-22T03:48:14.671Z,92.20
2023-03-22T03:50:50.219Z,92.20
2023-03-22T03:53:21.034Z,92.10
2023-03-22T03:55:49.081Z,92.10
2023-03-22T03:58:40.030Z,92.10
2023-03-22T04:01:11.968Z,92.10
2023-03-22T04:03:44.550Z,92.00
2023-03-22T04:06:15.327Z,92.00
2023-03-22T04:08:46.447Z,91.70
2023-03-22T04:11:24.709Z,92.00
2023-03-22T04:14:01.342Z,91.80
2023-03-22T04:16:38.239Z,91.80
2023-03-22T04:19:06.111Z,91.60
2023-03-22T04:21:36.852Z,91.90
2023-03-22T04:24:05.543Z,91.80
2023-03-22T04:26:34.080Z,92.10
2023-03-22T04:29:02.885Z,92.20
2023-03-22T04:31:44.410Z,92.20
2023-03-22T04:34:21.363Z,92.20
2023-03-22T04:36:49.750Z,92.00
2023-03-22T04:39:17.640Z,92.00
2023-03-22T04:42:03.583Z,91.60
2023-03-22T04:44:31.448Z,92.10
2023-03-22T04:47:08.105Z,92.20
2023-03-22T04:49:36.123Z,91.90
2023-03-22T04:52:06.846Z,91.90
2023-03-22T04:54:34.885Z,91.80
2023-03-22T04:57:06.088Z,91.00
2023-03-22T04:59:33.984Z,91.70
2023-03-22T05:02:18.414Z,91.40
2023-03-22T05:04:52.220Z,91.30
2023-03-22T05:07:33.178Z,91.20
2023-03-22T05:10:01.071Z,91.30
2023-03-22T05:12:28.946Z,91.20
2023-03-22T05:14:56.861Z,91.20
2023-03-22T05:17:26.123Z,91.20
2023-03-22T05:19:53.974Z,91.40
2023-03-22T05:22:30.693Z,91.40
2023-03-22T05:24:58.548Z,91.50
2023-03-22T05:27:34.882Z,91.40
2023-03-22T05:30:02.977Z,91.60
2023-03-22T05:32:32.160Z,91.60
2023-03-22T05:35:12.879Z,91.60
2023-03-22T05:37:40.800Z,91.60
2023-03-22T05:40:19.264Z,91.40
2023-03-22T05:42:56.638Z,91.40
2023-03-22T05:45:24.846Z,91.50
2023-03-22T05:47:54.094Z,91.70
2023-03-22T05:50:23.678Z,91.80
2023-03-22T05:52:52.305Z,91.80
2023-03-22T05:55:27.132Z,91.70
2023-03-22T05:58:02.833Z,91.70
2023-03-22T06:00:33.672Z,92.00
2023-03-22T06:03:05.760Z,91.40
2023-03-22T06:05:36.393Z,91.50
2023-03-22T06:08:06.867Z,91.50
2023-03-22T06:10:34.743Z,91.70
2023-03-22T06:13:02.627Z,92.30
2023-03-22T06:15:32.534Z,92.30
2023-03-22T06:18:00.592Z,92.30
2023-03-22T06:20:36.211Z,91.60
2023-03-22T06:23:04.065Z,92.30
2023-03-22T06:25:35.179Z,92.00
2023-03-22T06:28:09.046Z,92.30
2023-03-22T06:30:37.386Z,92.30
2023-03-22T06:33:06.084Z,92.40
2023-03-22T06:35:36.210Z,92.40
2023-03-22T06:38:06.140Z,92.30
2023-03-22T06:40:35.878Z,92.40
2023-03-22T06:43:09.828Z,92.30
2023-03-22T06:45:37.725Z,92.20
2023-03-22T06:48:11.732Z,92.50
2023-03-22T06:50:44.213Z,92.40
2023-03-22T06:53:21.279Z,92.50
2023-03-22T06:55:49.244Z,92.30
2023-03-22T06:58:29.116Z,91.90
2023-03-22T07:00:59.941Z,91.80
2023-03-22T07:03:27.880Z,92.30
2023-03-22T07:06:07.505Z,92.10
2023-03-22T07:08:37.077Z,91.90
2023-03-22T07:11:05.743Z,91.70
2023-03-22T07:13:33.720Z,91.50
2023-03-22T07:16:03.419Z,91.50
2023-03-22T07:18:31.631Z,91.40
2023-03-22T07:20:59.545Z,91.30
2023-03-22T07:23:28.783Z,91.40
2023-03-22T07:25:56.741Z,91.30
2023-03-22T07:28:24.966Z,91.30
2023-03-22T07:31:01.145Z,91.30
2023-03-22T07:33:29.031Z,91.30
2023-03-22T07:35:59.813Z,91.00
2023-03-22T07:38:31.888Z,90.90
2023-03-22T07:41:02.516Z,90.50
2023-03-22T07:43:37.115Z,90.80
2023-03-22T07:46:09.485Z,90.70
2023-03-22T07:48:39.031Z,90.60
2023-03-22T07:51:19.256Z,90.60
2023-03-22T07:53:48.509Z,90.60
2023-03-22T07:56:30.642Z,90.40
2023-03-22T07:59:01.662Z,90.50
2023-03-22T08:01:29.654Z,90.40
2023-03-22T08:04:00.676Z,90.20
2023-03-22T08:06:36.869Z,90.40
2023-03-22T08:09:08.274Z,89.10
2023-03-22T08:11:36.181Z,89.50
2023-03-22T08:14:07.122Z,90.00
2023-03-22T08:16:38.329Z,90.20
2023-03-22T08:19:06.665Z,88.80
2023-03-22T08:21:34.518Z,90.00
2023-03-22T08:24:02.486Z,90.00
2023-03-22T08:26:31.981Z,90.20
2023-03-22T08:28:59.855Z,90.30
2023-03-22T08:31:30.548Z,90.20
2023-03-22T08:34:04.586Z,90.30
2023-03-22T08:36:32.473Z,90.20
2023-03-22T08:39:08.310Z,90.10
2023-03-22T08:41:37.595Z,90.40
2023-03-22T08:44:05.700Z,90.10
2023-03-22T08:46:33.674Z,90.20
2023-03-22T08:49:04.658Z,90.10
2023-03-22T08:51:32.538Z,90.10
2023-03-22T08:54:06.556Z,90.20
2023-03-22T08:56:38.883Z,88.90
2023-03-22T08:59:13.197Z,90.00
2023-03-22T09:01:41.139Z,90.00
2023-03-22T09:04:21.451Z,90.00
2023-03-22T09:06:52.416Z,90.10
2023-03-22T09:09:25.610Z,90.00
2023-03-22T09:11:54.830Z,89.90
2023-03-22T09:14:25.789Z,90.00
2023-03-22T09:17:04.048Z,89.70
2023-03-22T09:19:35.858Z,89.60
2023-03-22T09:22:14.468Z,89.70
2023-03-22T09:24:49.588Z,89.60
2023-03-22T09:27:30.670Z,90.00
2023-03-22T09:30:04.872Z,88.20
2023-03-22T09:32:33.507Z,90.00
2023-03-22T09:35:01.389Z,90.00
2023-03-22T09:37:30.300Z,89.80
2023-03-22T09:39:58.526Z,89.50
2023-03-22T09:42:39.508Z,89.40
2023-03-22T09:45:18.352Z,89.30
2023-03-22T09:47:49.678Z,89.10
2023-03-22T09:50:26.413Z,88.90
2023-03-22T09:53:03.230Z,89.00
2023-03-22T09:55:44.412Z,89.00
2023-03-22T09:58:33.674Z,89.00
2023-03-22T10:01:15.000Z,88.80
2023-03-22T10:04:06.806Z,88.70
2023-03-22T10:06:34.903Z,89.20
2023-03-22T10:09:11.814Z,89.00
2023-03-22T10:11:46.193Z,87.70
2023-03-22T10:14:31.710Z,88.40
2023-03-22T10:17:07.608Z,88.70
2023-03-22T10:19:41.747Z,88.50
2023-03-22T10:22:16.364Z,88.40
2023-03-22T10:24:49.777Z,88.30
2023-03-22T10:27:22.657Z,88.30
2023-03-22T10:30:00.570Z,88.20
2023-03-22T10:32:33.210Z,85.70
2023-03-22T10:35:01.162Z,88.20
2023-03-22T10:37:33.972Z,88.10
2023-03-22T10:40:07.990Z,86.60
2023-03-22T10:42:39.292Z,87.30
2023-03-22T10:45:13.327Z,87.70
2023-03-22T10:47:48.654Z,86.40
2023-03-22T10:50:21.244Z,85.20
2023-03-22T10:52:57.716Z,87.50
2023-03-22T10:55:26.444Z,87.30
2023-03-22T10:58:06.987Z,86.80
2023-03-22T11:00:42.254Z,86.40
2023-03-22T11:03:30.794Z,86.70
2023-03-22T11:06:03.352Z,86.40
2023-03-22T11:08:40.265Z,86.40
2023-03-22T11:11:09.013Z,86.40
2023-03-22T11:13:37.435Z,86.80
2023-03-22T11:16:07.600Z,86.60
2023-03-22T11:18:36.415Z,86.80
2023-03-22T11:21:08.315Z,87.00
2023-03-22T11:23:38.953Z,87.00
2023-03-22T11:26:13.026Z,86.90
2023-03-22T11:28:53.386Z,86.70
2023-03-22T11:31:25.895Z,86.60
2023-03-22T11:33:58.978Z,86.70
2023-03-22T11:36:30.019Z,86.60
2023-03-22T11:38:59.160Z,85.90
2023-03-22T11:41:29.307Z,86.60
2023-03-22T11:43:59.681Z,86.50
2023-03-22T11:46:32.870Z,80.60
2023-03-22T11:49:07.273Z,79.40
2023-03-22T11:51:44.708Z,80.50
2023-03-22T11:54:24.075Z,79.40
2023-03-22T11:56:52.220Z,79.80
2023-03-22T11:59:25.919Z,79.80
2023-03-22T12:02:14.602Z,79.70
2023-03-22T12:04:44.894Z,80.10
2023-03-22T12:07:17.274Z,80.60
2023-03-22T12:09:53.093Z,80.60
2023-03-22T12:12:25.585Z,80.90
2023-03-22T12:14:58.400Z,80.80
2023-03-22T12:17:39.501Z,80.70
2023-03-22T12:20:20.676Z,80.90
2023-03-22T12:22:55.945Z,80.50
2023-03-22T12:25:32.378Z,80.20
2023-03-22T12:28:06.991Z,79.90
2023-03-22T12:30:43.241Z,79.80
2023-03-22T12:33:19.302Z,79.70
2023-03-22T12:35:48.397Z,79.80
2023-03-22T12:38:27.900Z,80.00
2023-03-22T12:41:04.342Z,80.20
2023-03-22T12:43:49.313Z,79.80
2023-03-22T12:46:21.375Z,80.00
2023-03-22T12:48:54.181Z,80.00
2023-03-22T12:51:31.135Z,79.90
2023-03-22T12:54:00.533Z,80.00
2023-03-22T12:56:34.057Z,79.90
2023-03-22T12:59:07.456Z,79.90
2023-03-22T13:01:40.821Z,80.00
2023-03-22T13:04:44.337Z,80.20
2023-03-22T13:07:31.482Z,79.50
2023-03-22T13:10:23.187Z,78.70
2023-03-22T13:13:15.463Z,79.40
2023-03-22T13:16:17.270Z,80.10
2023-03-22T13:19:04.312Z,81.60
2023-03-22T13:21:38.818Z,82.40
2023-03-22T13:24:24.129Z,83.90
2023-03-22T13:27:01.980Z,84.40
2023-03-22T13:29:37.409Z,84.10
2023-03-22T13:32:29.834Z,83.50
2023-03-22T13:35:04.175Z,83.20
2023-03-22T13:37:47.909Z,83.50
2023-03-22T13:40:34.900Z,83.70
2023-03-22T13:43:29.296Z,84.00
2023-03-22T13:46:12.329Z,83.90
2023-03-22T13:48:54.722Z,83.70
2023-03-22T13:51:31.808Z,83.70
2023-03-22T13:54:04.655Z,83.90
2023-03-22T13:56:56.860Z,84.00
2023-03-22T13:59:29.864Z,84.00
2023-03-22T14:02:04.762Z,84.10
2023-03-22T14:04:40.653Z,84.50
2023-03-22T14:07:16.676Z,84.50
2023-03-22T14:09:51.569Z,84.50
2023-03-22T14:12:33.958Z,84.30
2023-03-22T14:15:07.657Z,84.30
2023-03-22T14:17:48.764Z,84.50
2023-03-22T14:20:21.940Z,84.80
